createdAt,value
2023-07-29T00:00:14.260Z,97786.12
2023-07-29T00:01:17.645Z,97786.25
2023-07-29T00:02:20.557Z,97785.53
2023-07-29T00:03:23.623Z,97787.81
2023-07-29T00:04:26.919Z,97784.75
2023-07-29T00:05:29.656Z,97783.25
2023-07-29T00:06:32.466Z,97779.09
2023-07-29T00:07:35.274Z,97784.41
2023-07-29T00:08:38.038Z,97785.16
2023-07-29T00:09:40.832Z,97786.00
2023-07-29T00:10:43.619Z,97778.75
2023-07-29T00:11:46.390Z,97780.22
2023-07-29T00:12:49.122Z,97789.28
2023-07-29T00:13:52.220Z,97782.87
2023-07-29T00:14:54.996Z,97785.53
2023-07-29T00:15:57.965Z,97785.56
2023-07-29T00:17:00.721Z,97778.75
2023-07-29T00:18:03.805Z,97780.19
2023-07-29T00:19:06.669Z,97783.25
2023-07-29T00:20:09.656Z,97784.41
2023-07-29T00:21:12.509Z,97783.25
2023-07-29T00:22:15.249Z,97777.94
2023-07-29T00:23:20.415Z,97778.28
2023-07-29T00:24:23.069Z,97779.81
2023-07-29T00:25:25.764Z,97783.59
2023-07-29T00:26:30.350Z,97787.00
2023-07-29T00:27:33.089Z,97770.56
2023-07-29T00:28:35.998Z,97775.47
2023-07-29T00:29:38.782Z,97779.25
2023-07-29T00:30:41.552Z,97778.84
2023-07-29T00:31:44.437Z,97782.25
2023-07-29T00:32:47.219Z,97768.59
2023-07-29T00:33:50.024Z,97778.84
2023-07-29T00:34:52.783Z,97779.22
2023-07-29T00:35:55.836Z,97773.56
2023-07-29T00:36:58.890Z,97776.94
2023-07-29T00:38:01.757Z,97773.81
2023-07-29T00:39:04.621Z,97772.00
2023-07-29T00:40:17.512Z,97777.31
2023-07-29T00:41:22.709Z,97772.59
2023-07-29T00:42:26.000Z,97770.38
2023-07-29T00:43:28.709Z,97777.09
2023-07-29T00:44:33.058Z,97764.16
2023-07-29T00:45:36.425Z,97773.72
2023-07-29T00:46:39.850Z,97775.19
2023-07-29T00:47:43.678Z,97768.00
2023-07-29T00:48:46.681Z,97772.22
2023-07-29T00:49:49.677Z,97764.97
2023-07-29T00:50:52.688Z,97769.47
2023-07-29T00:51:56.135Z,97766.44
2023-07-29T00:52:59.182Z,97769.00
2023-07-29T00:54:01.929Z,97762.66
2023-07-29T00:55:06.143Z,97765.97
2023-07-29T00:56:08.923Z,97759.91
2023-07-29T00:57:15.338Z,97766.34
2023-07-29T00:58:18.319Z,97760.94
2023-07-29T00:59:21.080Z,97761.28
2023-07-29T01:00:23.929Z,97767.97
2023-07-29T01:01:26.846Z,97766.28
2023-07-29T01:02:31.136Z,97757.94
2023-07-29T01:03:34.493Z,97769.25
2023-07-29T01:04:37.371Z,97759.69
2023-07-29T01:05:57.364Z,97766.13
2023-07-29T01:07:15.167Z,97772.16
2023-07-29T01:08:38.779Z,97770.53
2023-07-29T01:10:04.165Z,97769.13
2023-07-29T01:11:43.040Z,97773.66
2023-07-29T01:12:52.115Z,97763.19
2023-07-29T01:14:02.829Z,97768.06
2023-07-29T01:15:20.639Z,97758.59
2023-07-29T01:16:39.354Z,97763.44
2023-07-29T01:17:54.094Z,97761.16
2023-07-29T01:18:57.178Z,97758.13
2023-07-29T01:20:09.014Z,97763.44
2023-07-29T01:21:14.290Z,97767.41
2023-07-29T01:22:17.951Z,97763.66
2023-07-29T01:23:35.175Z,97762.06
2023-07-29T01:24:37.930Z,97769.59
2023-07-29T01:25:40.760Z,97763.47
2023-07-29T01:26:43.525Z,97768.13
2023-07-29T01:27:48.400Z,97764.72
2023-07-29T01:28:51.171Z,97764.66
2023-07-29T01:29:55.780Z,97762.00
2023-07-29T01:31:11.809Z,97760.09
2023-07-29T01:32:33.918Z,97766.19
2023-07-29T01:33:44.041Z,97764.28
2023-07-29T01:34:55.220Z,97764.16
2023-07-29T01:36:25.858Z,97766.88
2023-07-29T01:37:34.186Z,97765.78
2023-07-29T01:38:39.669Z,97772.66
2023-07-29T01:39:45.803Z,97770.38
2023-07-29T01:40:50.547Z,97770.72
2023-07-29T01:41:53.441Z,97768.34
2023-07-29T01:42:56.859Z,97772.19
2023-07-29T01:44:00.283Z,97778.97
2023-07-29T01:45:03.423Z,97774.78
2023-07-29T01:46:06.261Z,97773.72
2023-07-29T01:47:09.039Z,97775.25
2023-07-29T01:48:11.908Z,97773.03
2023-07-29T01:49:14.776Z,97774.56
2023-07-29T01:50:17.350Z,97777.16
2023-07-29T01:51:20.139Z,97775.69
2023-07-29T01:52:22.970Z,97778.34
2023-07-29T01:53:25.717Z,97775.03
2023-07-29T01:54:28.620Z,97772.38
2023-07-29T01:55:31.519Z,97775.37
2023-07-29T01:56:34.712Z,97769.38
2023-07-29T01:57:37.738Z,97773.47
2023-07-29T01:58:40.574Z,97765.53
2023-07-29T01:59:43.619Z,97768.06
2023-07-29T02:00:46.461Z,97776.37
2023-07-29T02:01:50.155Z,97769.59
2023-07-29T02:02:52.902Z,97773.03
2023-07-29T02:03:58.522Z,97771.19
2023-07-29T02:05:01.327Z,97765.13
2023-07-29T02:06:04.144Z,97767.03
2023-07-29T02:07:07.000Z,97771.12
2023-07-29T02:08:09.809Z,97764.75
2023-07-29T02:09:12.678Z,97770.06
2023-07-29T02:10:15.787Z,97765.47
2023-07-29T02:11:18.523Z,97759.78
2023-07-29T02:12:21.363Z,97767.66
2023-07-29T02:13:24.101Z,97769.13
2023-07-29T02:14:26.833Z,97767.25
2023-07-29T02:15:29.833Z,97768.81
2023-07-29T02:16:34.307Z,97765.06
2023-07-29T02:17:37.977Z,97766.88
2023-07-29T02:18:40.792Z,97767.16
2023-07-29T02:19:43.646Z,97763.03
2023-07-29T02:20:50.720Z,97765.34
2023-07-29T02:21:53.693Z,97772.06
2023-07-29T02:22:56.346Z,97769.69
2023-07-29T02:23:59.017Z,97772.62
2023-07-29T02:25:02.298Z,97782.84
2023-07-29T02:26:05.034Z,97773.00
2023-07-29T02:27:08.116Z,97774.09
2023-07-29T02:28:10.918Z,97771.16
2023-07-29T02:29:13.832Z,97771.94
2023-07-29T02:30:16.828Z,97770.81
2023-07-29T02:31:23.263Z,97775.06
2023-07-29T02:32:26.518Z,97768.66
2023-07-29T02:33:29.338Z,97768.00
2023-07-29T02:34:32.191Z,97767.16
2023-07-29T02:35:34.928Z,97766.41
2023-07-29T02:36:37.843Z,97765.31
2023-07-29T02:37:40.773Z,97766.06
2023-07-29T02:38:44.053Z,97769.41
2023-07-29T02:39:46.958Z,97771.00
2023-07-29T02:40:49.679Z,97768.72
2023-07-29T02:41:52.721Z,97772.88
2023-07-29T02:42:55.348Z,97774.53
2023-07-29T02:43:58.025Z,97769.50
2023-07-29T02:45:00.792Z,97777.06
2023-07-29T02:46:04.257Z,97779.41
2023-07-29T02:47:06.935Z,97775.22
2023-07-29T02:48:09.830Z,97779.28
2023-07-29T02:49:12.665Z,97774.41
2023-07-29T02:50:15.746Z,97780.47
2023-07-29T02:51:18.498Z,97770.56
2023-07-29T02:52:21.399Z,97775.09
2023-07-29T02:53:24.518Z,97780.03
2023-07-29T02:54:27.293Z,97778.09
2023-07-29T02:55:30.068Z,97768.13
2023-07-29T02:56:32.892Z,97772.38
2023-07-29T02:57:35.728Z,97772.72
2023-07-29T02:58:38.865Z,97778.34
2023-07-29T02:59:41.681Z,97777.97
2023-07-29T03:00:44.830Z,97782.91
2023-07-29T03:01:48.135Z,97784.94
2023-07-29T03:02:51.962Z,97775.16
2023-07-29T03:03:55.080Z,97777.66
2023-07-29T03:04:57.985Z,97773.47
2023-07-29T03:06:04.872Z,97770.41
2023-07-29T03:07:07.653Z,97778.03
2023-07-29T03:08:10.379Z,97773.44
2023-07-29T03:09:12.988Z,97777.09
2023-07-29T03:10:16.331Z,97773.44
2023-07-29T03:11:18.973Z,97779.44
2023-07-29T03:12:22.842Z,97777.09
2023-07-29T03:13:25.998Z,97780.12
2023-07-29T03:14:29.044Z,97783.09
2023-07-29T03:15:31.813Z,97780.94
2023-07-29T03:16:34.897Z,97783.31
2023-07-29T03:17:37.920Z,97774.34
2023-07-29T03:18:41.621Z,97783.37
2023-07-29T03:19:44.350Z,97777.31
2023-07-29T03:20:47.061Z,97770.50
2023-07-29T03:21:50.818Z,97778.78
2023-07-29T03:22:53.419Z,97779.22
2023-07-29T03:23:56.127Z,97781.50
2023-07-29T03:24:58.824Z,97778.78
2023-07-29T03:26:05.480Z,97780.31
2023-07-29T03:27:09.319Z,97776.63
2023-07-29T03:28:12.036Z,97777.00
2023-07-29T03:29:14.740Z,97780.09
2023-07-29T03:30:22.285Z,97771.03
2023-07-29T03:31:24.982Z,97781.59
2023-07-29T03:32:27.737Z,97778.94
2023-07-29T03:33:30.827Z,97782.69
2023-07-29T03:34:33.990Z,97783.37
2023-07-29T03:35:36.879Z,97780.75
2023-07-29T03:36:39.661Z,97783.75
2023-07-29T03:37:43.163Z,97782.56
2023-07-29T03:38:46.139Z,97780.69
2023-07-29T03:39:49.426Z,97780.94
2023-07-29T03:40:52.268Z,97782.84
2023-07-29T03:41:54.945Z,97786.94
2023-07-29T03:42:57.611Z,97786.25
2023-07-29T03:44:00.246Z,97790.78
2023-07-29T03:45:03.215Z,97784.78
2023-07-29T03:46:08.353Z,97782.28
2023-07-29T03:47:12.674Z,97782.28
2023-07-29T03:48:15.501Z,97784.50
2023-07-29T03:49:18.249Z,97787.16
2023-07-29T03:50:21.085Z,97792.03
2023-07-29T03:51:25.009Z,97787.88
2023-07-29T03:52:27.641Z,97793.56
2023-07-29T03:53:30.172Z,97788.25
2023-07-29T03:54:32.782Z,97789.81
2023-07-29T03:55:35.685Z,97786.75
2023-07-29T03:56:39.669Z,97789.25
2023-07-29T03:57:42.774Z,97783.31
2023-07-29T03:58:47.917Z,97786.88
2023-07-29T03:59:50.766Z,97795.12
2023-07-29T04:00:53.557Z,97784.84
2023-07-29T04:01:56.570Z,97781.00
2023-07-29T04:02:59.507Z,97792.03
2023-07-29T04:04:02.309Z,97793.28
2023-07-29T04:05:06.398Z,97784.56
2023-07-29T04:06:10.281Z,97793.28
2023-07-29T04:07:13.029Z,97791.56
2023-07-29T04:08:15.840Z,97787.28
2023-07-29T04:09:18.725Z,97787.22
2023-07-29T04:10:21.651Z,97791.06
2023-07-29T04:11:24.855Z,97785.34
2023-07-29T04:13:30.759Z,97790.91
2023-07-29T04:14:33.423Z,97789.72
2023-07-29T04:15:36.230Z,97794.31
2023-07-29T04:16:39.144Z,97792.38
2023-07-29T04:17:42.240Z,97791.97
2023-07-29T04:18:45.039Z,97786.94
2023-07-29T04:19:47.966Z,97793.72
2023-07-29T04:20:50.797Z,97794.62
2023-07-29T04:21:53.535Z,97791.88
2023-07-29T04:22:56.412Z,97801.88
2023-07-29T04:23:59.117Z,97805.69
2023-07-29T04:25:01.871Z,97801.56
2023-07-29T04:26:04.665Z,97804.28
2023-07-29T04:27:07.591Z,97802.53
2023-07-29T04:28:10.356Z,97803.03
2023-07-29T04:29:13.245Z,97803.06
2023-07-29T04:30:16.221Z,97799.78
2023-07-29T04:31:19.005Z,97796.84
2023-07-29T04:32:21.886Z,97792.72
2023-07-29T04:33:24.670Z,97796.97
2023-07-29T04:34:27.399Z,97788.38
2023-07-29T04:35:30.348Z,97783.19
2023-07-29T04:36:33.209Z,97788.97
2023-07-29T04:37:36.071Z,97785.19
2023-07-29T04:38:39.059Z,97788.25
2023-07-29T04:39:41.866Z,97786.03
2023-07-29T04:40:44.795Z,97784.19
2023-07-29T04:41:47.460Z,97793.31
2023-07-29T04:42:50.650Z,97798.63
2023-07-29T04:43:53.995Z,97799.00
2023-07-29T04:44:56.739Z,97789.63
2023-07-29T04:45:59.573Z,97790.13
2023-07-29T04:47:02.342Z,97786.62
2023-07-29T04:48:05.407Z,97775.63
2023-07-29T04:49:08.253Z,97780.88
2023-07-29T04:50:11.350Z,97779.00
2023-07-29T04:51:13.989Z,97778.22
2023-07-29T04:52:16.778Z,97781.28
2023-07-29T04:53:19.477Z,97774.50
2023-07-29T04:54:22.716Z,97782.91
2023-07-29T04:55:25.530Z,97771.59
2023-07-29T04:56:28.319Z,97773.56
2023-07-29T04:57:31.123Z,97775.94
2023-07-29T04:58:36.564Z,97779.38
2023-07-29T04:59:39.276Z,97782.50
2023-07-29T05:00:42.073Z,97773.88
2023-07-29T05:01:44.988Z,97778.09
2023-07-29T05:02:48.153Z,97785.03
2023-07-29T05:03:50.829Z,97779.12
2023-07-29T05:04:53.650Z,97790.63
2023-07-29T05:05:57.440Z,97789.59
2023-07-29T05:07:00.245Z,97783.56
2023-07-29T05:08:02.968Z,97793.53
2023-07-29T05:09:16.856Z,97786.41
2023-07-29T05:10:19.856Z,97793.00
2023-07-29T05:11:23.572Z,97795.38
2023-07-29T05:12:26.344Z,97801.56
2023-07-29T05:13:29.474Z,97798.97
2023-07-29T05:14:32.264Z,97794.91
2023-07-29T05:15:35.227Z,97796.13
2023-07-29T05:16:38.243Z,97799.25
2023-07-29T05:17:41.522Z,97798.94
2023-07-29T05:18:44.419Z,97796.69
2023-07-29T05:19:47.157Z,97805.09
2023-07-29T05:20:50.007Z,97801.72
2023-07-29T05:21:52.663Z,97805.56
2023-07-29T05:22:55.427Z,97798.00
2023-07-29T05:23:58.166Z,97803.78
2023-07-29T05:25:01.009Z,97808.78
2023-07-29T05:26:03.759Z,97803.12
2023-07-29T05:27:07.160Z,97812.69
2023-07-29T05:28:10.079Z,97811.63
2023-07-29T05:29:12.891Z,97814.34
2023-07-29T05:30:15.843Z,97814.00
2023-07-29T05:31:19.154Z,97810.25
2023-07-29T05:32:21.967Z,97816.00
2023-07-29T05:33:24.830Z,97820.59
2023-07-29T05:34:28.127Z,97821.34
2023-07-29T05:35:30.741Z,97827.09
2023-07-29T05:36:33.373Z,97832.81
2023-07-29T05:37:36.345Z,97828.25
2023-07-29T05:38:39.192Z,97836.25
2023-07-29T05:39:41.983Z,97839.69
2023-07-29T05:40:44.895Z,97833.97
2023-07-29T05:41:48.566Z,97831.69
2023-07-29T05:42:51.302Z,97832.44
2023-07-29T05:43:54.088Z,97835.91
2023-07-29T05:44:56.849Z,97833.22
2023-07-29T05:45:59.607Z,97833.25
2023-07-29T05:47:02.217Z,97832.91
2023-07-29T05:48:05.283Z,97834.47
2023-07-29T05:49:08.031Z,97834.47
2023-07-29T05:50:11.006Z,97836.75
2023-07-29T05:51:13.781Z,97834.09
2023-07-29T05:52:16.716Z,97830.66
2023-07-29T05:53:19.594Z,97839.06
2023-07-29T05:54:22.415Z,97842.47
2023-07-29T05:55:25.540Z,97840.22
2023-07-29T05:56:28.289Z,97845.53
2023-07-29T05:57:31.098Z,97844.00
2023-07-29T05:58:33.800Z,97848.56
2023-07-29T05:59:36.738Z,97849.34
2023-07-29T06:00:39.888Z,97844.78
2023-07-29T06:01:42.572Z,97856.59
2023-07-29T06:02:45.432Z,97855.81
2023-07-29T06:03:49.028Z,97858.09
2023-07-29T06:04:52.010Z,97858.09
2023-07-29T06:05:55.607Z,97860.41
2023-07-29T06:06:58.402Z,97866.09
2023-07-29T06:08:01.554Z,97863.81
2023-07-29T06:09:04.268Z,97868.00
2023-07-29T06:10:07.265Z,97860.00
2023-07-29T06:11:09.883Z,97866.09
2023-07-29T06:12:12.564Z,97867.59
2023-07-29T06:13:15.204Z,97868.00
2023-07-29T06:14:18.384Z,97865.28
2023-07-29T06:15:24.095Z,97871.75
2023-07-29T06:16:27.127Z,97860.31
2023-07-29T06:17:30.162Z,97862.91
2023-07-29T06:18:32.913Z,97875.50
2023-07-29T06:19:35.636Z,97877.03
2023-07-29T06:20:38.564Z,97873.25
2023-07-29T06:21:41.237Z,97871.78
2023-07-29T06:22:44.479Z,97872.94
2023-07-29T06:23:48.038Z,97864.22
2023-07-29T06:24:51.008Z,97872.63
2023-07-29T06:25:53.769Z,97878.38
2023-07-29T06:26:56.420Z,97877.66
2023-07-29T06:27:59.717Z,97870.78
2023-07-29T06:29:02.521Z,97874.25
2023-07-29T06:30:05.792Z,97876.19
2023-07-29T06:31:08.658Z,97868.56
2023-07-29T06:32:11.813Z,97881.91
2023-07-29T06:33:14.505Z,97880.38
2023-07-29T06:34:17.258Z,97878.81
2023-07-29T06:35:21.016Z,97880.72
2023-07-29T06:36:23.893Z,97881.13
2023-07-29T06:37:27.291Z,97891.41
2023-07-29T06:38:30.121Z,97888.34
2023-07-29T06:39:32.907Z,97885.25
2023-07-29T06:40:35.689Z,97878.69
2023-07-29T06:41:38.423Z,97884.06
2023-07-29T06:42:41.196Z,97881.81
2023-07-29T06:43:43.766Z,97889.78
2023-07-29T06:44:49.153Z,97886.59
2023-07-29T06:45:52.758Z,97882.78
2023-07-29T06:46:55.465Z,97880.47
2023-07-29T06:47:58.268Z,97882.06
2023-07-29T06:49:01.035Z,97883.22
2023-07-29T06:50:03.890Z,97879.81
2023-07-29T06:51:06.766Z,97886.69
2023-07-29T06:52:09.702Z,97882.84
2023-07-29T06:53:13.073Z,97884.78
2023-07-29T06:54:18.295Z,97874.44
2023-07-29T06:55:20.993Z,97878.59
2023-07-29T06:56:23.652Z,97878.94
2023-07-29T06:57:26.490Z,97875.09
2023-07-29T06:58:29.288Z,97867.00
2023-07-29T06:59:32.374Z,97872.75
2023-07-29T07:00:35.145Z,97869.25
2023-07-29T07:01:38.128Z,97864.31
2023-07-29T07:02:40.973Z,97871.09
2023-07-29T07:03:45.474Z,97868.00
2023-07-29T07:04:48.261Z,97869.44
2023-07-29T07:05:52.089Z,97870.53
2023-07-29T07:06:54.801Z,97869.69
2023-07-29T07:07:57.381Z,97864.28
2023-07-29T07:09:00.256Z,97866.47
2023-07-29T07:10:02.970Z,97868.69
2023-07-29T07:11:05.698Z,97871.66
2023-07-29T07:12:09.294Z,97869.34
2023-07-29T07:13:12.063Z,97872.50
2023-07-29T07:14:14.862Z,97873.63
2023-07-29T07:15:17.650Z,97870.53
2023-07-29T07:16:20.579Z,97870.53
2023-07-29T07:17:23.450Z,97873.25
2023-07-29T07:18:26.445Z,97867.97
2023-07-29T07:19:29.108Z,97877.03
2023-07-29T07:20:31.876Z,97870.44
2023-07-29T07:21:34.645Z,97867.81
2023-07-29T07:22:37.442Z,97867.75
2023-07-29T07:23:40.905Z,97877.31
2023-07-29T07:24:43.739Z,97871.62
2023-07-29T07:25:46.593Z,97880.13
2023-07-29T07:26:50.107Z,97871.81
2023-07-29T07:27:52.837Z,97880.66
2023-07-29T07:28:55.551Z,97882.22
2023-07-29T07:29:58.338Z,97871.88
2023-07-29T07:31:00.959Z,97879.91
2023-07-29T07:32:03.888Z,97876.81
2023-07-29T07:33:06.608Z,97877.16
2023-07-29T07:34:09.567Z,97870.25
2023-07-29T07:35:12.247Z,97876.31
2023-07-29T07:36:15.143Z,97881.59
2023-07-29T07:37:17.876Z,97876.59
2023-07-29T07:38:20.628Z,97876.59
2023-07-29T07:39:23.369Z,97875.00
2023-07-29T07:40:26.497Z,97877.31
2023-07-29T07:41:29.245Z,97878.78
2023-07-29T07:42:31.917Z,97874.25
2023-07-29T07:43:34.638Z,97870.09
2023-07-29T07:44:37.367Z,97871.72
2023-07-29T07:45:40.063Z,97869.47
2023-07-29T07:46:43.369Z,97873.38
2023-07-29T07:47:46.435Z,97879.41
2023-07-29T07:48:49.169Z,97869.06
2023-07-29T07:49:52.457Z,97878.19
2023-07-29T07:50:55.306Z,97873.94
2023-07-29T07:51:58.135Z,97865.50
2023-07-29T07:53:00.982Z,97869.63
2023-07-29T07:54:03.824Z,97873.87
2023-07-29T07:55:07.275Z,97865.31
2023-07-29T07:56:09.907Z,97866.37
2023-07-29T07:57:15.303Z,97865.13
2023-07-29T07:58:18.161Z,97869.69
2023-07-29T07:59:21.063Z,97861.06
2023-07-29T08:00:23.975Z,97862.16
2023-07-29T08:01:26.978Z,97863.56
2023-07-29T08:02:29.914Z,97862.28
2023-07-29T08:03:33.003Z,97867.91
2023-07-29T08:04:35.882Z,97867.78
2023-07-29T08:05:38.671Z,97869.53
2023-07-29T08:06:41.475Z,97854.75
2023-07-29T08:07:47.219Z,97862.94
2023-07-29T08:08:49.899Z,97858.91
2023-07-29T08:09:52.845Z,97861.75
2023-07-29T08:10:57.477Z,97859.50
2023-07-29T08:12:00.330Z,97864.75
2023-07-29T08:13:03.106Z,97862.03
2023-07-29T08:14:05.774Z,97864.06
2023-07-29T08:15:08.751Z,97859.91
2023-07-29T08:16:11.494Z,97856.63
2023-07-29T08:17:14.302Z,97862.28
2023-07-29T08:18:18.110Z,97864.06
2023-07-29T08:19:22.767Z,97864.59
2023-07-29T08:20:25.838Z,97863.38
2023-07-29T08:21:28.917Z,97860.63
2023-07-29T08:22:31.800Z,97861.50
2023-07-29T08:23:36.749Z,97859.56
2023-07-29T08:24:39.580Z,97856.88
2023-07-29T08:25:42.398Z,97864.88
2023-07-29T08:26:45.205Z,97856.25
2023-07-29T08:27:47.888Z,97856.75
2023-07-29T08:28:53.155Z,97861.56
2023-07-29T08:29:58.734Z,97855.47
2023-07-29T08:31:02.148Z,97851.37
2023-07-29T08:32:05.212Z,97849.28
2023-07-29T08:33:08.266Z,97854.16
2023-07-29T08:34:11.122Z,97855.75
2023-07-29T08:35:13.966Z,97855.88
2023-07-29T08:36:17.009Z,97858.09
2023-07-29T08:37:19.744Z,97853.44
2023-07-29T08:38:22.730Z,97856.41
2023-07-29T08:39:25.409Z,97854.31
2023-07-29T08:40:31.275Z,97855.91
2023-07-29T08:41:55.312Z,97851.09
2023-07-29T08:43:00.733Z,97849.25
2023-07-29T08:44:13.544Z,97850.16
2023-07-29T08:45:18.532Z,97850.94
2023-07-29T08:46:21.774Z,97842.53
2023-07-29T08:47:24.646Z,97849.34
2023-07-29T08:48:41.322Z,97844.28
2023-07-29T08:49:46.694Z,97842.59
2023-07-29T08:50:51.166Z,97843.03
2023-07-29T08:51:55.387Z,97852.31
2023-07-29T08:52:59.463Z,97848.62
2023-07-29T08:54:02.875Z,97847.56
2023-07-29T08:55:06.396Z,97849.59
2023-07-29T08:56:09.818Z,97845.63
2023-07-29T08:57:12.541Z,97846.72
2023-07-29T08:58:15.715Z,97840.31
2023-07-29T08:59:19.212Z,97842.28
2023-07-29T09:00:22.560Z,97842.09
2023-07-29T09:01:25.371Z,97841.56
2023-07-29T09:02:28.500Z,97841.38
2023-07-29T09:03:31.676Z,97836.47
2023-07-29T09:04:34.648Z,97836.47
2023-07-29T09:05:37.439Z,97844.25
2023-07-29T09:06:41.258Z,97844.94
2023-07-29T09:07:46.868Z,97840.53
2023-07-29T09:08:52.522Z,97840.53
2023-07-29T09:09:55.215Z,97834.88
2023-07-29T09:10:58.127Z,97840.06
2023-07-29T09:12:00.810Z,97837.50
2023-07-29T09:13:04.482Z,97838.78
2023-07-29T09:14:07.259Z,97841.59
2023-07-29T09:15:10.458Z,97838.91
2023-07-29T09:16:13.706Z,97836.28
2023-07-29T09:17:16.599Z,97839.03
2023-07-29T09:18:23.318Z,97845.94
2023-07-29T09:19:27.845Z,97844.84
2023-07-29T09:20:30.853Z,97841.69
2023-07-29T09:21:33.874Z,97846.59
2023-07-29T09:22:36.779Z,97828.84
2023-07-29T09:23:43.539Z,97828.56
2023-07-29T09:24:47.576Z,97833.47
2023-07-29T09:25:50.262Z,97835.53
2023-07-29T09:26:55.518Z,97839.69
2023-07-29T09:28:02.154Z,97836.22
2023-07-29T09:29:05.342Z,97830.94
2023-07-29T09:30:16.530Z,97826.94
2023-07-29T09:31:24.786Z,97828.09
2023-07-29T09:32:28.086Z,97827.03
2023-07-29T09:33:36.524Z,97827.31
2023-07-29T09:34:43.049Z,97820.75
2023-07-29T09:35:45.878Z,97819.38
2023-07-29T09:36:52.031Z,97826.00
2023-07-29T09:37:54.831Z,97827.81
2023-07-29T09:38:58.084Z,97820.81
2023-07-29T09:40:00.902Z,97815.75
2023-07-29T09:41:03.885Z,97817.47
2023-07-29T09:42:06.980Z,97818.66
2023-07-29T09:43:10.973Z,97811.53
2023-07-29T09:44:13.608Z,97818.09
2023-07-29T09:45:26.848Z,97817.34
2023-07-29T09:46:40.169Z,97819.09
2023-07-29T09:47:48.162Z,97815.72
2023-07-29T09:48:52.247Z,97814.88
2023-07-29T09:49:55.145Z,97810.78
2023-07-29T09:50:59.267Z,97815.75
2023-07-29T09:52:04.792Z,97815.44
2023-07-29T09:53:08.731Z,97819.22
2023-07-29T09:54:13.796Z,97812.94
2023-07-29T09:55:20.471Z,97816.94
2023-07-29T09:56:27.994Z,97812.50
2023-07-29T09:57:31.394Z,97810.97
2023-07-29T09:58:34.885Z,97812.28
2023-07-29T09:59:37.695Z,97820.81
2023-07-29T10:00:41.349Z,97814.03
2023-07-29T10:01:44.416Z,97817.69
2023-07-29T10:02:47.509Z,97813.91
2023-07-29T10:03:53.028Z,97809.03
2023-07-29T10:04:58.885Z,97806.44
2023-07-29T10:06:05.286Z,97808.06
2023-07-29T10:07:10.927Z,97809.53
2023-07-29T10:08:16.142Z,97813.97
2023-07-29T10:09:22.820Z,97810.56
2023-07-29T10:10:29.133Z,97805.53
2023-07-29T10:11:33.856Z,97810.50
2023-07-29T10:12:36.923Z,97813.03
2023-07-29T10:13:40.118Z,97820.75
2023-07-29T10:14:44.210Z,97809.56
2023-07-29T10:15:47.896Z,97816.72
2023-07-29T10:16:51.766Z,97807.91
2023-07-29T10:17:55.546Z,97805.00
2023-07-29T10:18:59.208Z,97805.19
2023-07-29T10:20:02.416Z,97808.03
2023-07-29T10:21:07.201Z,97801.69
2023-07-29T10:22:13.263Z,97804.25
2023-07-29T10:23:19.031Z,97810.19
2023-07-29T10:24:30.808Z,97808.28
2023-07-29T10:25:43.738Z,97805.56
2023-07-29T10:26:50.711Z,97814.06
2023-07-29T10:27:55.919Z,97807.34
2023-07-29T10:29:06.350Z,97804.97
2023-07-29T10:30:11.827Z,97803.41
2023-07-29T10:31:18.083Z,97802.28
2023-07-29T10:32:23.558Z,97806.34
2023-07-29T10:33:29.513Z,97809.50
2023-07-29T10:34:33.672Z,97810.81
2023-07-29T10:35:37.268Z,97807.84
2023-07-29T10:36:40.799Z,97805.91
2023-07-29T10:37:44.177Z,97805.34
2023-07-29T10:38:47.283Z,97796.28
2023-07-29T10:39:55.405Z,97806.41
2023-07-29T10:41:01.299Z,97807.09
2023-07-29T10:42:07.438Z,97803.19
2023-07-29T10:43:13.845Z,97804.38
2023-07-29T10:44:43.314Z,97806.22
2023-07-29T10:45:46.066Z,97797.34
2023-07-29T10:46:48.809Z,97801.75
2023-07-29T10:47:51.522Z,97801.91
2023-07-29T10:48:56.590Z,97801.69
2023-07-29T10:50:00.941Z,97803.97
2023-07-29T10:51:35.338Z,97799.09
2023-07-29T10:52:37.938Z,97795.34
2023-07-29T10:53:40.609Z,97800.94
2023-07-29T10:54:49.967Z,97791.91
2023-07-29T10:55:53.021Z,97799.09
2023-07-29T10:57:00.285Z,97803.31
2023-07-29T10:58:12.713Z,97798.09
2023-07-29T10:59:18.615Z,97789.72
2023-07-29T11:00:24.830Z,97805.06
2023-07-29T11:01:33.452Z,97804.03
2023-07-29T11:02:37.836Z,97806.91
2023-07-29T11:03:40.745Z,97805.87
2023-07-29T11:04:52.315Z,97799.09
2023-07-29T11:05:55.716Z,97798.81
2023-07-29T11:07:19.243Z,97803.78
2023-07-29T11:08:23.201Z,97797.44
2023-07-29T11:09:42.603Z,97794.72
2023-07-29T11:10:45.782Z,97797.31
2023-07-29T11:11:51.567Z,97798.84
2023-07-29T11:12:55.574Z,97806.34
2023-07-29T11:14:01.204Z,97799.06
2023-07-29T11:15:11.669Z,97797.47
2023-07-29T11:16:18.272Z,97799.13
2023-07-29T11:17:21.438Z,97800.34
2023-07-29T11:18:26.030Z,97804.13
2023-07-29T11:19:28.895Z,97798.97
2023-07-29T11:20:33.914Z,97801.41
2023-07-29T11:21:37.732Z,97801.38
2023-07-29T11:22:40.761Z,97802.47
2023-07-29T11:23:43.485Z,97798.97
2023-07-29T11:24:46.108Z,97805.97
2023-07-29T11:25:49.089Z,97798.72
2023-07-29T11:26:51.751Z,97793.56
2023-07-29T11:27:58.615Z,97799.84
2023-07-29T11:29:01.970Z,97800.00
2023-07-29T11:30:07.077Z,97788.88
2023-07-29T11:31:10.021Z,97791.44
2023-07-29T11:32:12.996Z,97797.13
2023-07-29T11:33:15.787Z,97796.25
2023-07-29T11:34:22.249Z,97791.78
2023-07-29T11:35:25.481Z,97787.44
2023-07-29T11:36:28.160Z,97802.59
2023-07-29T11:37:31.036Z,97797.13
2023-07-29T11:38:38.302Z,97802.34
2023-07-29T11:39:45.508Z,97797.00
2023-07-29T11:40:58.348Z,97788.63
2023-07-29T11:42:00.943Z,97798.72
2023-07-29T11:43:03.660Z,97791.91
2023-07-29T11:44:11.367Z,97795.66
2023-07-29T11:45:17.926Z,97794.03
2023-07-29T11:46:23.583Z,97794.03
2023-07-29T11:47:26.458Z,97798.31
2023-07-29T11:48:34.360Z,97790.94
2023-07-29T11:49:39.497Z,97785.22
2023-07-29T11:50:42.511Z,97785.22
2023-07-29T11:51:45.243Z,97788.41
2023-07-29T11:52:48.150Z,97791.88
2023-07-29T11:53:50.864Z,97793.25
2023-07-29T11:54:54.563Z,97778.00
2023-07-29T11:55:57.686Z,97778.72
2023-07-29T11:57:00.572Z,97778.47
2023-07-29T11:58:04.429Z,97775.03
2023-07-29T11:59:08.038Z,97767.63
2023-07-29T12:00:13.776Z,97775.00
2023-07-29T12:01:16.924Z,97777.44
2023-07-29T12:02:21.460Z,97767.06
2023-07-29T12:03:24.866Z,97764.94
2023-07-29T12:04:28.142Z,97757.56
2023-07-29T12:05:31.547Z,97758.00
2023-07-29T12:06:34.655Z,97771.12
2023-07-29T12:07:40.300Z,97763.75
2023-07-29T12:08:44.543Z,97766.75
2023-07-29T12:09:48.635Z,97768.22
2023-07-29T12:10:51.442Z,97762.81
2023-07-29T12:11:54.646Z,97774.69
2023-07-29T12:12:57.306Z,97770.94
2023-07-29T12:14:01.580Z,97772.62
2023-07-29T12:15:04.524Z,97760.44
2023-07-29T12:16:07.614Z,97763.72
2023-07-29T12:17:10.833Z,97767.19
2023-07-29T12:18:13.869Z,97754.09
2023-07-29T12:19:16.980Z,97754.22
2023-07-29T12:20:21.562Z,97753.25
2023-07-29T12:21:24.279Z,97757.16
2023-07-29T12:22:27.067Z,97762.97
2023-07-29T12:23:30.858Z,97761.47
2023-07-29T12:24:36.950Z,97759.63
2023-07-29T12:25:39.558Z,97756.78
2023-07-29T12:26:43.320Z,97762.06
2023-07-29T12:27:46.087Z,97756.62
2023-07-29T12:28:49.211Z,97752.41
2023-07-29T12:29:54.713Z,97760.59
2023-07-29T12:30:58.666Z,97752.56
2023-07-29T12:32:05.220Z,97756.94
2023-07-29T12:33:08.002Z,97754.34
2023-07-29T12:34:10.806Z,97763.25